createdAt,value
2024-04-04T07:01:33.797Z,13.57
2024-04-04T07:06:40.184Z,14.35
2024-04-04T07:11:45.091Z,14.81
2024-04-04T07:16:57.151Z,15.05
2024-04-04T07:22:02.946Z,15.33
2024-04-04T07:27:09.093Z,15.48
2024-04-04T07:32:20.398Z,15.60
2024-04-04T07:37:34.448Z,15.69
2024-04-04T07:42:41.765Z,15.77
2024-04-04T07:47:54.050Z,15.88
2024-04-04T07:52:58.228Z,15.99
2024-04-04T07:58:03.736Z,16.09
2024-04-04T08:03:13.271Z,16.16
2024-04-04T08:08:17.840Z,16.23
2024-04-04T08:13:21.855Z,16.22
2024-04-04T08:18:29.568Z,16.08
2024-04-04T08:23:34.450Z,15.90
2024-04-04T08:28:39.689Z,15.84
2024-04-04T08:33:45.656Z,15.93
2024-04-04T08:38:50.058Z,15.96
2024-04-04T08:43:55.911Z,15.92
2024-04-04T08:49:02.779Z,15.99
2024-04-04T08:54:06.851Z,16.22
2024-04-04T08:59:11.076Z,16.50
2024-04-04T09:04:26.448Z,16.85
2024-04-04T09:09:30.421Z,16.98
2024-04-04T09:14:35.514Z,17.19
2024-04-04T09:19:42.626Z,17.27
2024-04-04T09:24:57.139Z,17.12
2024-04-04T09:30:09.091Z,17.19
2024-04-04T09:35:15.566Z,17.59
2024-04-04T12:31:52.688Z,14.25
2024-04-04T12:37:25.393Z,14.90
2024-04-04T12:43:02.105Z,15.09
2024-04-04T12:48:19.102Z,15.05
2024-04-04T12:53:24.612Z,15.15
2024-04-04T12:58:36.788Z,15.52
2024-04-04T13:03:43.478Z,16.26
2024-04-04T13:08:47.661Z,16.86
2024-04-04T18:40:17.773Z,14.36
2024-04-04T18:45:22.240Z,14.99
2024-04-04T18:50:27.580Z,15.29
2024-04-04T18:55:34.585Z,15.42
2024-04-04T19:00:38.983Z,15.43
2024-04-04T19:05:47.832Z,15.40
2024-04-04T19:10:58.823Z,15.40
2024-04-04T19:16:04.051Z,15.36
2024-04-04T19:21:08.302Z,15.29
2024-04-04T19:26:16.437Z,15.24
2024-04-04T19:31:20.512Z,15.17
2024-04-04T19:36:25.726Z,15.12
2024-04-04T19:41:34.910Z,15.10
2024-04-04T19:46:41.286Z,15.06
2024-04-04T19:51:45.438Z,14.98
2024-04-04T19:56:51.515Z,14.91
2024-04-04T20:01:55.773Z,14.79
2024-04-04T20:06:59.997Z,14.74
2024-04-04T20:12:06.639Z,14.67
2024-04-04T20:17:10.787Z,14.58
2024-04-04T20:22:15.082Z,14.47
2024-04-04T20:27:21.330Z,14.40
2024-04-04T20:32:25.767Z,14.31
2024-04-04T20:37:30.091Z,14.24
2024-04-04T20:42:37.235Z,14.20
2024-04-04T20:47:41.399Z,14.15
2024-04-04T20:52:45.491Z,14.13
2024-04-04T20:57:51.488Z,14.15
2024-04-04T21:02:55.538Z,14.23
2024-04-04T21:07:59.567Z,14.36
2024-04-04T21:13:06.471Z,14.50
2024-04-04T21:18:11.415Z,14.61
2024-04-04T21:23:15.571Z,14.66
2024-04-04T21:28:22.445Z,14.71
2024-04-04T21:33:26.405Z,14.73
2024-04-04T21:38:30.352Z,14.72
2024-04-04T21:43:36.509Z,14.72
2024-04-04T21:48:40.598Z,14.68
2024-04-04T21:53:49.042Z,14.60
2024-04-04T21:58:55.044Z,14.47
2024-04-04T22:03:59.156Z,14.32
2024-04-04T22:09:04.148Z,14.24
2024-04-04T22:14:10.151Z,14.27
2024-04-04T22:19:14.172Z,14.32
2024-04-04T22:24:18.183Z,14.39
2024-04-04T22:29:24.262Z,14.48
2024-04-04T22:34:28.555Z,14.57
2024-04-04T22:39:32.824Z,14.64
2024-04-04T22:44:38.805Z,14.70
2024-04-04T22:49:42.904Z,14.77
2024-04-04T22:54:47.077Z,14.78
